sensor_id;sensor_type;location;lat;lon;timestamp;P1;durP1;ratioP1;P2;durP2;ratioP2
67442;SDS011;54311;51.726;5.154;2022-12-15T00:02:37;34.40;;;24.42;;
67442;SDS011;54311;51.726;5.154;2022-12-15T00:05:21;34.03;;;25.17;;
67442;SDS011;54311;51.726;5.154;2022-12-15T00:08:06;33.40;;;24.63;;
67442;SDS011;54311;51.726;5.154;2022-12-15T00:10:51;29.02;;;22.45;;
67442;SDS011;54311;51.726;5.154;2022-12-15T00:13:35;31.42;;;21.27;;
67442;SDS011;54311;51.726;5.154;2022-12-15T00:16:19;34.10;;;23.17;;
67442;SDS011;54311;51.726;5.154;2022-12-15T00:19:03;28.00;;;21.83;;
67442;SDS011;54311;51.726;5.154;2022-12-15T00:21:47;31.27;;;24.63;;
67442;SDS011;54311;51.726;5.154;2022-12-15T00:24:31;28.20;;;21.38;;
67442;SDS011;54311;51.726;5.154;2022-12-15T00:27:14;27.30;;;22.75;;
67442;SDS011;54311;51.726;5.154;2022-12-15T00:29:58;29.85;;;23.35;;
67442;SDS011;54311;51.726;5.154;2022-12-15T00:32:42;34.20;;;24.42;;
67442;SDS011;54311;51.726;5.154;2022-12-15T00:35:26;33.20;;;22.65;;
67442;SDS011;54311;51.726;5.154;2022-12-15T00:38:11;30.77;;;23.70;;
67442;SDS011;54311;51.726;5.154;2022-12-15T00:40:56;33.97;;;22.95;;
67442;SDS011;54311;51.726;5.154;2022-12-15T00:43:30;32.08;;;22.58;;
67442;SDS011;54311;51.726;5.154;2022-12-15T00:45:56;34.38;;;23.23;;
67442;SDS011;54311;51.726;5.154;2022-12-15T00:48:40;30.75;;;23.88;;
67442;SDS011;54311;51.726;5.154;2022-12-15T00:51:05;33.75;;;23.48;;
67442;SDS011;54311;51.726;5.154;2022-12-15T00:53:31;30.40;;;23.90;;
67442;SDS011;54311;51.726;5.154;2022-12-15T00:56:16;37.03;;;25.27;;
67442;SDS011;54311;51.726;5.154;2022-12-15T00:59:00;33.60;;;24.73;;
67442;SDS011;54311;51.726;5.154;2022-12-15T01:01:44;32.53;;;25.08;;
67442;SDS011;54311;51.726;5.154;2022-12-15T01:04:28;28.17;;;23.65;;
67442;SDS011;54311;51.726;5.154;2022-12-15T01:07:12;32.58;;;24.50;;
67442;SDS011;54311;51.726;5.154;2022-12-15T01:09:56;34.08;;;23.75;;
67442;SDS011;54311;51.726;5.154;2022-12-15T01:12:40;32.50;;;24.27;;
67442;SDS011;54311;51.726;5.154;2022-12-15T01:15:24;34.53;;;23.90;;
67442;SDS011;54311;51.726;5.154;2022-12-15T01:18:08;33.10;;;23.77;;
67442;SDS011;54311;51.726;5.154;2022-12-15T01:21:00;35.00;;;26.40;;
67442;SDS011;54311;51.726;5.154;2022-12-15T01:23:29;36.28;;;24.50;;
67442;SDS011;54311;51.726;5.154;2022-12-15T01:25:55;36.53;;;25.42;;
67442;SDS011;54311;51.726;5.154;2022-12-15T01:28:21;33.10;;;25.77;;
67442;SDS011;54311;51.726;5.154;2022-12-15T01:30:46;36.58;;;25.88;;
67442;SDS011;54311;51.726;5.154;2022-12-15T01:33:13;40.92;;;24.40;;
67442;SDS011;54311;51.726;5.154;2022-12-15T01:35:38;37.45;;;26.70;;
67442;SDS011;54311;51.726;5.154;2022-12-15T01:38:04;39.75;;;28.70;;
67442;SDS011;54311;51.726;5.154;2022-12-15T01:40:29;37.97;;;25.25;;
67442;SDS011;54311;51.726;5.154;2022-12-15T01:43:14;31.40;;;23.63;;
67442;SDS011;54311;51.726;5.154;2022-12-15T01:45:48;36.35;;;27.30;;
67442;SDS011;54311;51.726;5.154;2022-12-15T01:48:26;39.53;;;26.30;;
67442;SDS011;54311;51.726;5.154;2022-12-15T01:51:05;35.35;;;24.92;;
67442;SDS011;54311;51.726;5.154;2022-12-15T01:53:36;37.40;;;26.17;;
67442;SDS011;54311;51.726;5.154;2022-12-15T01:56:07;38.28;;;25.27;;
67442;SDS011;54311;51.726;5.154;2022-12-15T01:58:33;29.15;;;24.25;;
67442;SDS011;54311;51.726;5.154;2022-12-15T02:00:59;38.10;;;26.48;;
67442;SDS011;54311;51.726;5.154;2022-12-15T02:03:25;35.53;;;24.45;;
67442;SDS011;54311;51.726;5.154;2022-12-15T02:05:51;34.60;;;25.20;;
67442;SDS011;54311;51.726;5.154;2022-12-15T02:08:16;37.15;;;26.95;;
67442;SDS011;54311;51.726;5.154;2022-12-15T02:13:30;34.05;;;27.20;;
67442;SDS011;54311;51.726;5.154;2022-12-15T02:15:58;34.30;;;25.88;;
67442;SDS011;54311;51.726;5.154;2022-12-15T02:20:56;38.80;;;25.08;;
67442;SDS011;54311;51.726;5.154;2022-12-15T02:31:54;40.17;;;28.35;;
67442;SDS011;54311;51.726;5.154;2022-12-15T02:37:08;41.70;;;28.27;;
67442;SDS011;54311;51.726;5.154;2022-12-15T02:39:40;40.35;;;29.70;;
67442;SDS011;54311;51.726;5.154;2022-12-15T02:42:05;39.78;;;29.42;;
67442;SDS011;54311;51.726;5.154;2022-12-15T02:44:33;47.75;;;29.70;;
67442;SDS011;54311;51.726;5.154;2022-12-15T02:47:19;41.17;;;29.63;;
67442;SDS011;54311;51.726;5.154;2022-12-15T03:01:04;48.78;;;28.75;;
67442;SDS011;54311;51.726;5.154;2022-12-15T03:03:32;42.05;;;30.70;;
67442;SDS011;54311;51.726;5.154;2022-12-15T03:05:58;40.72;;;29.60;;
67442;SDS011;54311;51.726;5.154;2022-12-15T03:08:26;43.65;;;30.45;;
67442;SDS011;54311;51.726;5.154;2022-12-15T03:10:52;41.33;;;28.42;;
67442;SDS011;54311;51.726;5.154;2022-12-15T03:13:19;40.10;;;27.90;;
67442;SDS011;54311;51.726;5.154;2022-12-15T03:15:44;38.28;;;29.30;;
67442;SDS011;54311;51.726;5.154;2022-12-15T03:18:10;44.17;;;30.98;;
67442;SDS011;54311;51.726;5.154;2022-12-15T03:20:35;39.40;;;28.42;;
67442;SDS011;54311;51.726;5.154;2022-12-15T03:23:00;45.60;;;30.27;;
67442;SDS011;54311;51.726;5.154;2022-12-15T03:25:26;46.25;;;30.45;;
67442;SDS011;54311;51.726;5.154;2022-12-15T03:27:52;47.03;;;31.70;;
67442;SDS011;54311;51.726;5.154;2022-12-15T03:30:17;39.80;;;30.60;;
67442;SDS011;54311;51.726;5.154;2022-12-15T03:32:42;44.88;;;30.42;;
67442;SDS011;54311;51.726;5.154;2022-12-15T03:35:08;42.78;;;30.65;;
67442;SDS011;54311;51.726;5.154;2022-12-15T03:37:33;47.90;;;33.25;;
67442;SDS011;54311;51.726;5.154;2022-12-15T03:39:59;44.13;;;32.80;;
67442;SDS011;54311;51.726;5.154;2022-12-15T03:42:24;52.20;;;33.72;;
67442;SDS011;54311;51.726;5.154;2022-12-15T03:45:19;43.72;;;31.92;;
67442;SDS011;54311;51.726;5.154;2022-12-15T03:47:46;47.70;;;32.55;;
67442;SDS011;54311;51.726;5.154;2022-12-15T03:50:14;46.85;;;33.58;;
67442;SDS011;54311;51.726;5.154;2022-12-15T03:52:41;46.22;;;33.80;;
67442;SDS011;54311;51.726;5.154;2022-12-15T03:55:07;48.28;;;34.40;;
67442;SDS011;54311;51.726;5.154;2022-12-15T03:57:33;45.60;;;32.95;;
67442;SDS011;54311;51.726;5.154;2022-12-15T03:59:58;54.00;;;33.17;;
67442;SDS011;54311;51.726;5.154;2022-12-15T04:02:24;48.63;;;32.58;;
67442;SDS011;54311;51.726;5.154;2022-12-15T04:04:49;53.40;;;32.92;;
67442;SDS011;54311;51.726;5.154;2022-12-15T04:07:14;47.10;;;33.22;;
67442;SDS011;54311;51.726;5.154;2022-12-15T04:09:40;49.83;;;34.80;;
67442;SDS011;54311;51.726;5.154;2022-12-15T04:12:05;49.45;;;31.63;;
67442;SDS011;54311;51.726;5.154;2022-12-15T04:14:31;53.17;;;33.40;;
67442;SDS011;54311;51.726;5.154;2022-12-15T04:16:57;48.78;;;34.13;;
67442;SDS011;54311;51.726;5.154;2022-12-15T04:19:22;49.55;;;35.50;;
67442;SDS011;54311;51.726;5.154;2022-12-15T04:22:06;50.25;;;32.75;;
67442;SDS011;54311;51.726;5.154;2022-12-15T04:24:31;47.83;;;33.55;;
67442;SDS011;54311;51.726;5.154;2022-12-15T04:27:15;47.85;;;33.33;;
67442;SDS011;54311;51.726;5.154;2022-12-15T04:29:59;48.05;;;33.08;;
67442;SDS011;54311;51.726;5.154;2022-12-15T04:32:43;44.22;;;32.42;;
67442;SDS011;54311;51.726;5.154;2022-12-15T04:35:27;45.00;;;32.75;;
67442;SDS011;54311;51.726;5.154;2022-12-15T04:38:12;48.40;;;32.75;;
67442;SDS011;54311;51.726;5.154;2022-12-15T04:40:56;44.67;;;29.98;;
67442;SDS011;54311;51.726;5.154;2022-12-15T04:43:40;44.60;;;32.00;;
67442;SDS011;54311;51.726;5.154;2022-12-15T04:46:23;44.03;;;32.25;;
67442;SDS011;54311;51.726;5.154;2022-12-15T04:49:07;41.83;;;30.70;;
67442;SDS011;54311;51.726;5.154;2022-12-15T04:51:51;48.83;;;32.15;;
67442;SDS011;54311;51.726;5.154;2022-12-15T04:54:35;43.35;;;31.33;;
67442;SDS011;54311;51.726;5.154;2022-12-15T04:57:19;46.92;;;31.05;;
67442;SDS011;54311;51.726;5.154;2022-12-15T05:00:04;42.88;;;33.17;;
67442;SDS011;54311;51.726;5.154;2022-12-15T05:02:48;48.95;;;30.25;;
67442;SDS011;54311;51.726;5.154;2022-12-15T05:05:32;50.70;;;31.63;;
67442;SDS011;54311;51.726;5.154;2022-12-15T05:08:15;47.03;;;32.70;;
67442;SDS011;54311;51.726;5.154;2022-12-15T05:10:59;47.53;;;32.78;;
67442;SDS011;54311;51.726;5.154;2022-12-15T05:13:43;52.53;;;31.88;;
67442;SDS011;54311;51.726;5.154;2022-12-15T05:16:27;41.50;;;29.98;;
67442;SDS011;54311;51.726;5.154;2022-12-15T05:19:11;45.47;;;32.05;;
67442;SDS011;54311;51.726;5.154;2022-12-15T05:21:55;44.00;;;31.35;;
67442;SDS011;54311;51.726;5.154;2022-12-15T05:24:39;42.95;;;31.45;;
67442;SDS011;54311;51.726;5.154;2022-12-15T05:27:23;47.58;;;30.27;;
67442;SDS011;54311;51.726;5.154;2022-12-15T05:30:07;45.10;;;31.10;;
67442;SDS011;54311;51.726;5.154;2022-12-15T05:35:16;45.92;;;29.60;;
67442;SDS011;54311;51.726;5.154;2022-12-15T05:37:42;46.35;;;32.33;;
67442;SDS011;54311;51.726;5.154;2022-12-15T05:40:07;46.42;;;31.02;;
67442;SDS011;54311;51.726;5.154;2022-12-15T05:42:33;46.97;;;31.17;;
67442;SDS011;54311;51.726;5.154;2022-12-15T05:44:58;45.90;;;32.55;;
67442;SDS011;54311;51.726;5.154;2022-12-15T05:47:23;45.80;;;33.05;;
67442;SDS011;54311;51.726;5.154;2022-12-15T05:49:49;53.75;;;33.97;;
67442;SDS011;54311;51.726;5.154;2022-12-15T05:52:15;47.10;;;31.65;;
67442;SDS011;54311;51.726;5.154;2022-12-15T05:54:40;50.15;;;32.20;;
67442;SDS011;54311;51.726;5.154;2022-12-15T05:57:06;46.63;;;32.97;;
67442;SDS011;54311;51.726;5.154;2022-12-15T05:59:31;46.08;;;32.72;;
67442;SDS011;54311;51.726;5.154;2022-12-15T06:01:57;40.22;;;30.67;;
67442;SDS011;54311;51.726;5.154;2022-12-15T06:04:22;42.15;;;31.85;;
67442;SDS011;54311;51.726;5.154;2022-12-15T06:06:47;45.53;;;30.02;;
67442;SDS011;54311;51.726;5.154;2022-12-15T06:09:13;45.03;;;31.25;;
67442;SDS011;54311;51.726;5.154;2022-12-15T06:11:38;43.17;;;32.10;;
67442;SDS011;54311;51.726;5.154;2022-12-15T06:14:04;44.00;;;30.38;;
67442;SDS011;54311;51.726;5.154;2022-12-15T06:16:29;37.05;;;29.27;;
67442;SDS011;54311;51.726;5.154;2022-12-15T06:18:56;46.90;;;29.33;;
67442;SDS011;54311;51.726;5.154;2022-12-15T06:21:23;42.47;;;29.52;;
67442;SDS011;54311;51.726;5.154;2022-12-15T06:23:54;48.63;;;30.48;;
67442;SDS011;54311;51.726;5.154;2022-12-15T06:26:21;46.08;;;31.90;;
67442;SDS011;54311;51.726;5.154;2022-12-15T06:28:48;45.13;;;31.35;;
67442;SDS011;54311;51.726;5.154;2022-12-15T06:31:14;44.42;;;31.60;;
67442;SDS011;54311;51.726;5.154;2022-12-15T06:33:40;43.47;;;32.05;;
67442;SDS011;54311;51.726;5.154;2022-12-15T06:36:10;41.72;;;30.70;;
67442;SDS011;54311;51.726;5.154;2022-12-15T06:38:36;47.55;;;31.75;;
67442;SDS011;54311;51.726;5.154;2022-12-15T06:41:03;42.55;;;30.73;;
67442;SDS011;54311;51.726;5.154;2022-12-15T06:43:29;45.67;;;33.60;;
67442;SDS011;54311;51.726;5.154;2022-12-15T06:45:55;42.28;;;30.98;;
67442;SDS011;54311;51.726;5.154;2022-12-15T06:48:21;43.17;;;31.88;;
67442;SDS011;54311;51.726;5.154;2022-12-15T06:50:47;44.45;;;32.10;;
67442;SDS011;54311;51.726;5.154;2022-12-15T06:53:13;42.83;;;31.33;;
67442;SDS011;54311;51.726;5.154;2022-12-15T06:55:39;47.17;;;31.90;;
67442;SDS011;54311;51.726;5.154;2022-12-15T06:58:05;43.63;;;30.65;;
67442;SDS011;54311;51.726;5.154;2022-12-15T07:00:32;42.38;;;31.95;;
67442;SDS011;54311;51.726;5.154;2022-12-15T07:02:58;43.47;;;31.05;;
67442;SDS011;54311;51.726;5.154;2022-12-15T07:05:23;48.17;;;32.03;;
67442;SDS011;54311;51.726;5.154;2022-12-15T07:07:48;46.33;;;34.20;;
67442;SDS011;54311;51.726;5.154;2022-12-15T07:10:14;47.85;;;32.83;;
67442;SDS011;54311;51.726;5.154;2022-12-15T07:12:39;47.10;;;34.50;;
67442;SDS011;54311;51.726;5.154;2022-12-15T07:15:04;47.80;;;33.30;;
67442;SDS011;54311;51.726;5.154;2022-12-15T07:17:32;53.45;;;31.60;;
67442;SDS011;54311;51.726;5.154;2022-12-15T07:19:58;44.00;;;31.42;;
67442;SDS011;54311;51.726;5.154;2022-12-15T07:22:23;45.72;;;32.08;;
67442;SDS011;54311;51.726;5.154;2022-12-15T07:24:49;49.78;;;32.63;;
67442;SDS011;54311;51.726;5.154;2022-12-15T07:27:14;55.88;;;32.75;;
67442;SDS011;54311;51.726;5.154;2022-12-15T07:29:39;46.20;;;32.33;;
67442;SDS011;54311;51.726;5.154;2022-12-15T07:32:06;43.28;;;32.88;;
67442;SDS011;54311;51.726;5.154;2022-12-15T07:34:31;53.50;;;35.58;;
67442;SDS011;54311;51.726;5.154;2022-12-15T07:36:56;48.65;;;36.20;;
67442;SDS011;54311;51.726;5.154;2022-12-15T07:39:22;46.22;;;32.20;;
67442;SDS011;54311;51.726;5.154;2022-12-15T07:41:48;50.15;;;33.30;;
67442;SDS011;54311;51.726;5.154;2022-12-15T07:44:13;50.05;;;32.95;;
67442;SDS011;54311;51.726;5.154;2022-12-15T07:46:39;43.72;;;31.50;;
67442;SDS011;54311;51.726;5.154;2022-12-15T07:49:04;45.33;;;32.72;;
67442;SDS011;54311;51.726;5.154;2022-12-15T07:51:29;47.88;;;34.78;;
67442;SDS011;54311;51.726;5.154;2022-12-15T07:53:55;45.63;;;32.75;;
67442;SDS011;54311;51.726;5.154;2022-12-15T07:56:20;47.42;;;33.75;;
67442;SDS011;54311;51.726;5.154;2022-12-15T07:58:46;49.78;;;31.45;;
67442;SDS011;54311;51.726;5.154;2022-12-15T08:01:12;44.17;;;32.42;;
67442;SDS011;54311;51.726;5.154;2022-12-15T08:03:37;48.53;;;33.50;;
67442;SDS011;54311;51.726;5.154;2022-12-15T08:06:07;47.47;;;32.97;;
67442;SDS011;54311;51.726;5.154;2022-12-15T08:08:34;49.40;;;33.65;;
67442;SDS011;54311;51.726;5.154;2022-12-15T08:11:06;45.60;;;35.75;;
67442;SDS011;54311;51.726;5.154;2022-12-15T08:13:33;52.28;;;36.58;;
67442;SDS011;54311;51.726;5.154;2022-12-15T08:15:59;51.63;;;35.42;;
67442;SDS011;54311;51.726;5.154;2022-12-15T08:18:24;52.85;;;36.45;;
67442;SDS011;54311;51.726;5.154;2022-12-15T08:20:50;47.28;;;34.55;;
67442;SDS011;54311;51.726;5.154;2022-12-15T08:23:15;57.25;;;37.20;;
67442;SDS011;54311;51.726;5.154;2022-12-15T08:25:42;53.15;;;39.35;;
67442;SDS011;54311;51.726;5.154;2022-12-15T08:28:07;56.10;;;38.85;;
67442;SDS011;54311;51.726;5.154;2022-12-15T08:30:33;48.78;;;36.22;;
67442;SDS011;54311;51.726;5.154;2022-12-15T08:33:00;54.00;;;41.65;;
67442;SDS011;54311;51.726;5.154;2022-12-15T08:35:26;64.85;;;39.47;;
67442;SDS011;54311;51.726;5.154;2022-12-15T08:37:52;58.95;;;43.00;;
67442;SDS011;54311;51.726;5.154;2022-12-15T08:40:17;63.25;;;42.55;;
67442;SDS011;54311;51.726;5.154;2022-12-15T08:42:42;59.25;;;42.30;;
67442;SDS011;54311;51.726;5.154;2022-12-15T08:45:08;59.45;;;40.92;;
67442;SDS011;54311;51.726;5.154;2022-12-15T08:47:34;56.78;;;39.83;;
67442;SDS011;54311;51.726;5.154;2022-12-15T08:49:59;54.38;;;40.33;;
67442;SDS011;54311;51.726;5.154;2022-12-15T08:52:24;55.08;;;40.92;;
67442;SDS011;54311;51.726;5.154;2022-12-15T08:54:50;61.20;;;41.13;;
67442;SDS011;54311;51.726;5.154;2022-12-15T08:57:15;62.72;;;42.60;;
67442;SDS011;54311;51.726;5.154;2022-12-15T08:59:40;61.38;;;39.55;;
67442;SDS011;54311;51.726;5.154;2022-12-15T09:02:06;51.63;;;38.15;;
67442;SDS011;54311;51.726;5.154;2022-12-15T09:04:31;54.63;;;40.78;;
67442;SDS011;54311;51.726;5.154;2022-12-15T09:06:56;54.25;;;40.08;;
67442;SDS011;54311;51.726;5.154;2022-12-15T09:09:22;56.28;;;39.28;;
67442;SDS011;54311;51.726;5.154;2022-12-15T09:11:48;62.38;;;40.42;;
67442;SDS011;54311;51.726;5.154;2022-12-15T09:14:14;65.22;;;45.20;;
67442;SDS011;54311;51.726;5.154;2022-12-15T09:16:40;56.70;;;41.85;;
67442;SDS011;54311;51.726;5.154;2022-12-15T09:19:05;66.43;;;46.97;;
67442;SDS011;54311;51.726;5.154;2022-12-15T09:21:32;70.25;;;48.10;;
67442;SDS011;54311;51.726;5.154;2022-12-15T09:23:58;73.57;;;47.17;;
67442;SDS011;54311;51.726;5.154;2022-12-15T09:26:26;65.88;;;43.03;;
67442;SDS011;54311;51.726;5.154;2022-12-15T09:28:53;67.03;;;45.67;;
67442;SDS011;54311;51.726;5.154;2022-12-15T09:31:25;73.93;;;53.40;;
67442;SDS011;54311;51.726;5.154;2022-12-15T09:33:54;68.05;;;44.90;;
67442;SDS011;54311;51.726;5.154;2022-12-15T09:36:22;68.82;;;47.60;;
67442;SDS011;54311;51.726;5.154;2022-12-15T09:38:48;71.97;;;49.50;;
67442;SDS011;54311;51.726;5.154;2022-12-15T09:43:41;65.63;;;49.22;;
67442;SDS011;54311;51.726;5.154;2022-12-15T09:48:58;66.20;;;48.03;;
67442;SDS011;54311;51.726;5.154;2022-12-15T09:51:32;73.85;;;49.53;;
67442;SDS011;54311;51.726;5.154;2022-12-15T09:54:00;65.50;;;46.78;;
67442;SDS011;54311;51.726;5.154;2022-12-15T09:56:48;68.05;;;48.20;;
67442;SDS011;54311;51.726;5.154;2022-12-15T09:59:32;67.25;;;47.55;;
67442;SDS011;54311;51.726;5.154;2022-12-15T10:09:51;64.72;;;46.85;;
67442;SDS011;54311;51.726;5.154;2022-12-15T10:12:17;72.50;;;49.47;;
67442;SDS011;54311;51.726;5.154;2022-12-15T10:18:02;66.65;;;47.22;;
67442;SDS011;54311;51.726;5.154;2022-12-15T10:20:18;68.82;;;47.22;;
67442;SDS011;54311;51.726;5.154;2022-12-15T10:22:48;74.28;;;48.67;;
67442;SDS011;54311;51.726;5.154;2022-12-15T10:25:15;71.55;;;47.53;;
67442;SDS011;54311;51.726;5.154;2022-12-15T10:30:30;74.00;;;49.47;;
67442;SDS011;54311;51.726;5.154;2022-12-15T10:33:03;70.07;;;49.10;;
67442;SDS011;54311;51.726;5.154;2022-12-15T10:35:40;64.75;;;49.20;;
67442;SDS011;54311;51.726;5.154;2022-12-15T10:38:15;64.13;;;46.75;;
67442;SDS011;54311;51.726;5.154;2022-12-15T10:40:45;63.13;;;45.70;;
67442;SDS011;54311;51.726;5.154;2022-12-15T10:43:26;69.53;;;49.97;;
67442;SDS011;54311;51.726;5.154;2022-12-15T10:46:16;70.47;;;48.33;;
67442;SDS011;54311;51.726;5.154;2022-12-15T10:48:47;69.13;;;46.67;;
67442;SDS011;54311;51.726;5.154;2022-12-15T10:53:52;65.07;;;45.88;;
67442;SDS011;54311;51.726;5.154;2022-12-15T10:56:29;67.70;;;44.95;;
67442;SDS011;54311;51.726;5.154;2022-12-15T10:58:56;69.45;;;46.40;;
67442;SDS011;54311;51.726;5.154;2022-12-15T11:01:23;64.43;;;44.40;;
67442;SDS011;54311;51.726;5.154;2022-12-15T11:03:50;60.78;;;45.15;;
67442;SDS011;54311;51.726;5.154;2022-12-15T11:06:18;61.03;;;45.33;;
67442;SDS011;54311;51.726;5.154;2022-12-15T11:08:55;66.10;;;45.78;;
67442;SDS011;54311;51.726;5.154;2022-12-15T11:11:31;66.13;;;45.30;;
67442;SDS011;54311;51.726;5.154;2022-12-15T11:14:17;60.65;;;44.90;;
67442;SDS011;54311;51.726;5.154;2022-12-15T11:16:52;61.58;;;45.47;;
67442;SDS011;54311;51.726;5.154;2022-12-15T11:19:27;66.53;;;48.10;;
67442;SDS011;54311;51.726;5.154;2022-12-15T11:22:43;70.15;;;47.90;;
67442;SDS011;54311;51.726;5.154;2022-12-15T11:25:04;60.05;;;44.58;;
67442;SDS011;54311;51.726;5.154;2022-12-15T11:27:38;70.30;;;49.40;;
67442;SDS011;54311;51.726;5.154;2022-12-15T11:30:17;63.17;;;47.00;;
67442;SDS011;54311;51.726;5.154;2022-12-15T11:32:53;68.05;;;47.70;;
67442;SDS011;54311;51.726;5.154;2022-12-15T11:35:26;63.72;;;45.88;;
67442;SDS011;54311;51.726;5.154;2022-12-15T11:40:39;78.57;;;55.25;;
67442;SDS011;54311;51.726;5.154;2022-12-15T11:48:31;68.40;;;47.05;;
67442;SDS011;54311;51.726;5.154;2022-12-15T11:51:05;73.60;;;55.33;;
67442;SDS011;54311;51.726;5.154;2022-12-15T12:10:58;61.63;;;43.88;;
67442;SDS011;54311;51.726;5.154;2022-12-15T12:13:35;61.53;;;45.80;;
67442;SDS011;54311;51.726;5.154;2022-12-15T12:19:09;61.78;;;46.75;;
67442;SDS011;54311;51.726;5.154;2022-12-15T12:21:42;60.38;;;44.08;;
67442;SDS011;54311;51.726;5.154;2022-12-15T12:24:15;58.95;;;43.88;;
67442;SDS011;54311;51.726;5.154;2022-12-15T12:26:57;61.03;;;43.88;;
67442;SDS011;54311;51.726;5.154;2022-12-15T12:29:25;56.20;;;44.72;;
67442;SDS011;54311;51.726;5.154;2022-12-15T12:37:24;56.47;;;42.93;;
67442;SDS011;54311;51.726;5.154;2022-12-15T12:39:55;62.22;;;45.10;;
67442;SDS011;54311;51.726;5.154;2022-12-15T12:43:07;60.22;;;44.55;;
67442;SDS011;54311;51.726;5.154;2022-12-15T12:45:24;55.08;;;42.08;;
67442;SDS011;54311;51.726;5.154;2022-12-15T12:47:54;54.05;;;43.90;;
67442;SDS011;54311;51.726;5.154;2022-12-15T12:50:21;57.22;;;43.03;;
67442;SDS011;54311;51.726;5.154;2022-12-15T12:52:53;55.83;;;43.03;;
67442;SDS011;54311;51.726;5.154;2022-12-15T13:03:38;49.30;;;38.70;;
67442;SDS011;54311;51.726;5.154;2022-12-15T13:08:59;52.50;;;39.28;;
67442;SDS011;54311;51.726;5.154;2022-12-15T13:14:20;48.65;;;37.17;;
67442;SDS011;54311;51.726;5.154;2022-12-15T13:16:55;55.10;;;38.60;;
67442;SDS011;54311;51.726;5.154;2022-12-15T13:24:55;42.97;;;36.63;;
67442;SDS011;54311;51.726;5.154;2022-12-15T13:27:21;49.35;;;38.25;;
67442;SDS011;54311;51.726;5.154;2022-12-15T13:32:40;52.30;;;37.55;;
67442;SDS011;54311;51.726;5.154;2022-12-15T13:40:24;54.58;;;39.83;;
67442;SDS011;54311;51.726;5.154;2022-12-15T13:45:31;48.72;;;37.20;;
67442;SDS011;54311;51.726;5.154;2022-12-15T13:48:00;49.13;;;37.90;;
67442;SDS011;54311;51.726;5.154;2022-12-15T13:50:43;50.13;;;39.25;;
67442;SDS011;54311;51.726;5.154;2022-12-15T13:53:15;50.20;;;40.58;;
67442;SDS011;54311;51.726;5.154;2022-12-15T13:55:55;59.55;;;42.50;;
67442;SDS011;54311;51.726;5.154;2022-12-15T13:58:24;59.95;;;45.40;;
67442;SDS011;54311;51.726;5.154;2022-12-15T14:00:53;57.92;;;45.13;;
67442;SDS011;54311;51.726;5.154;2022-12-15T14:03:20;55.47;;;45.70;;
67442;SDS011;54311;51.726;5.154;2022-12-15T14:05:53;59.33;;;46.78;;
67442;SDS011;54311;51.726;5.154;2022-12-15T14:08:19;59.50;;;45.67;;
67442;SDS011;54311;51.726;5.154;2022-12-15T14:15:44;54.85;;;44.17;;
67442;SDS011;54311;51.726;5.154;2022-12-15T14:20:54;53.33;;;41.42;;
67442;SDS011;54311;51.726;5.154;2022-12-15T14:23:21;53.38;;;42.17;;
67442;SDS011;54311;51.726;5.154;2022-12-15T14:28:29;56.50;;;44.13;;
67442;SDS011;54311;51.726;5.154;2022-12-15T14:30:57;54.78;;;42.75;;
67442;SDS011;54311;51.726;5.154;2022-12-15T14:33:25;56.30;;;42.25;;
67442;SDS011;54311;51.726;5.154;2022-12-15T14:35:52;52.22;;;43.17;;
67442;SDS011;54311;51.726;5.154;2022-12-15T14:39:05;54.25;;;42.58;;
67442;SDS011;54311;51.726;5.154;2022-12-15T14:41:13;52.72;;;40.78;;
67442;SDS011;54311;51.726;5.154;2022-12-15T14:43:44;59.00;;;43.30;;
67442;SDS011;54311;51.726;5.154;2022-12-15T14:46:11;53.70;;;42.45;;
67442;SDS011;54311;51.726;5.154;2022-12-15T14:48:42;50.13;;;41.08;;
67442;SDS011;54311;51.726;5.154;2022-12-15T14:51:10;58.83;;;46.78;;
67442;SDS011;54311;51.726;5.154;2022-12-15T14:53:37;60.60;;;46.88;;
67442;SDS011;54311;51.726;5.154;2022-12-15T14:56:18;57.85;;;46.17;;
67442;SDS011;54311;51.726;5.154;2022-12-15T14:58:46;63.08;;;48.08;;
67442;SDS011;54311;51.726;5.154;2022-12-15T15:03:55;60.92;;;46.63;;
67442;SDS011;54311;51.726;5.154;2022-12-15T15:06:21;58.85;;;45.88;;
67442;SDS011;54311;51.726;5.154;2022-12-15T15:08:52;57.13;;;45.35;;
67442;SDS011;54311;51.726;5.154;2022-12-15T15:11:25;60.88;;;44.08;;
67442;SDS011;54311;51.726;5.154;2022-12-15T15:13:57;53.28;;;44.35;;
67442;SDS011;54311;51.726;5.154;2022-12-15T15:16:24;57.17;;;44.92;;
67442;SDS011;54311;51.726;5.154;2022-12-15T15:18:51;63.95;;;46.53;;
67442;SDS011;54311;51.726;5.154;2022-12-15T15:21:20;56.88;;;43.70;;
67442;SDS011;54311;51.726;5.154;2022-12-15T15:23:57;56.13;;;43.75;;
67442;SDS011;54311;51.726;5.154;2022-12-15T15:26:22;50.88;;;40.58;;
67442;SDS011;54311;51.726;5.154;2022-12-15T15:28:49;56.20;;;43.35;;
67442;SDS011;54311;51.726;5.154;2022-12-15T15:33:51;47.92;;;39.65;;
67442;SDS011;54311;51.726;5.154;2022-12-15T15:36:17;57.75;;;41.17;;
67442;SDS011;54311;51.726;5.154;2022-12-15T15:38:42;54.05;;;40.80;;
67442;SDS011;54311;51.726;5.154;2022-12-15T15:41:14;52.45;;;40.15;;
67442;SDS011;54311;51.726;5.154;2022-12-15T15:43:41;54.13;;;39.88;;
67442;SDS011;54311;51.726;5.154;2022-12-15T15:46:12;58.97;;;41.97;;
67442;SDS011;54311;51.726;5.154;2022-12-15T15:48:46;52.97;;;41.90;;
67442;SDS011;54311;51.726;5.154;2022-12-15T15:51:17;52.67;;;40.97;;
67442;SDS011;54311;51.726;5.154;2022-12-15T15:53:42;55.60;;;41.00;;
67442;SDS011;54311;51.726;5.154;2022-12-15T15:56:08;53.65;;;41.65;;
67442;SDS011;54311;51.726;5.154;2022-12-15T15:58:35;55.55;;;42.88;;
67442;SDS011;54311;51.726;5.154;2022-12-15T16:01:00;52.83;;;41.88;;
67442;SDS011;54311;51.726;5.154;2022-12-15T16:03:26;52.28;;;41.50;;
67442;SDS011;54311;51.726;5.154;2022-12-15T16:05:52;56.80;;;41.58;;
67442;SDS011;54311;51.726;5.154;2022-12-15T16:08:18;54.50;;;41.75;;
67442;SDS011;54311;51.726;5.154;2022-12-15T16:10:46;54.38;;;42.33;;
67442;SDS011;54311;51.726;5.154;2022-12-15T16:13:13;55.80;;;42.25;;
67442;SDS011;54311;51.726;5.154;2022-12-15T16:15:40;52.45;;;41.30;;
67442;SDS011;54311;51.726;5.154;2022-12-15T16:18:05;51.67;;;41.38;;
67442;SDS011;54311;51.726;5.154;2022-12-15T16:20:31;60.00;;;41.97;;
67442;SDS011;54311;51.726;5.154;2022-12-15T16:22:58;59.90;;;41.60;;
67442;SDS011;54311;51.726;5.154;2022-12-15T16:25:28;57.28;;;42.28;;
67442;SDS011;54311;51.726;5.154;2022-12-15T16:27:57;61.60;;;42.83;;
67442;SDS011;54311;51.726;5.154;2022-12-15T16:30:24;52.63;;;42.08;;
67442;SDS011;54311;51.726;5.154;2022-12-15T16:32:50;55.00;;;42.85;;
67442;SDS011;54311;51.726;5.154;2022-12-15T16:35:16;56.80;;;43.00;;
67442;SDS011;54311;51.726;5.154;2022-12-15T16:37:42;56.00;;;42.25;;
67442;SDS011;54311;51.726;5.154;2022-12-15T16:40:21;57.47;;;41.60;;
67442;SDS011;54311;51.726;5.154;2022-12-15T16:42:55;54.50;;;42.05;;
67442;SDS011;54311;51.726;5.154;2022-12-15T16:47:48;61.00;;;41.50;;
67442;SDS011;54311;51.726;5.154;2022-12-15T16:50:15;60.38;;;42.90;;
67442;SDS011;54311;51.726;5.154;2022-12-15T16:52:42;55.08;;;43.08;;
67442;SDS011;54311;51.726;5.154;2022-12-15T16:55:12;59.13;;;43.20;;
67442;SDS011;54311;51.726;5.154;2022-12-15T16:57:42;71.10;;;44.10;;